Weather History for Mammoth, CA

Change the Weather History Date:

Thursday, October 10, 2013

  Actual Average Record
Temperature  
Mean Temperature 44 °F -  
Max Temperature 57 °F 60 °F 73 °F (2014)
Min Temperature 32 °F 40 °F 23 °F (1998)
Degree Days  
Heating Degree Days 20    
Moisture  
Dew Point 29 °F    
Average Humidity 64    
Maximum Humidity 93    
Minimum Humidity 26    
Precipitation  
Precipitation 0.00 in - - ()
Sea Level Pressure  
Sea Level Pressure 29.95 in    
Wind  
Wind Speed 6 mph (WNW)    
Max Wind Speed 13 mph    
Max Gust Speed 17 mph    
Visibility 10 miles    
Events      
Averages and records for this station are not official NWS values.
T = Trace of Precipitation, MM = Missing Value Source: NWS Daily Summary

Daily Weather History Graph

Daily Weather History Graph

Search for Another Location

Airport:

Trip Planner

Search our weather history database for the weather conditions in past years. The results will help you decide how hot, cold, wet, or windy it might be!

Date:

Astronomy

Oct. 10, 2013 Rise Set
Actual Time 6:59 AM PDT 6:24 PM PDT
Civil Twilight 6:32 AM PDT 6:50 PM PDT
Nautical Twilight 6:02 AM PDT 7:21 PM PDT
Astronomical Twilight 5:32 AM PDT 7:51 PM PDT
Moon 12:51 PM PDT (10/10) 11:11 PM PDT (10/10)
Length of Visible Light 12h 17m
Length of Day
11h 25m
Waxing Crescent, 37% of the Moon is Illuminated
Oct 10
Waxing Crescent
Oct 11
First Quarter
Oct 18
Full
Oct 26
Last Quarter
Nov 3
New

Hourly Weather History & Observations

Time (PDT) Temp. Windchill Dew Point Humidity Pressure Visibility Wind Dir Wind Speed Gust Speed Precip Events Conditions
12:15 AM 35.6 °F 28.6 °F 33.8 °F 93% 29.82 in 10.0 mi West 9.2 mph - N/A   Overcast
12:35 AM 35.6 °F 27.5 °F 32.0 °F 87% 29.83 in 10.0 mi West 11.5 mph - N/A   Overcast
12:55 AM 35.6 °F 29.9 °F 32.0 °F 87% 29.84 in 10.0 mi West 6.9 mph - N/A   Overcast
1:15 AM 35.6 °F 29.2 °F 32.0 °F 87% 29.84 in 10.0 mi West 8.1 mph - N/A   Overcast
1:35 AM 35.6 °F 29.9 °F 32.0 °F 87% 29.84 in 10.0 mi West 6.9 mph - N/A   Overcast
1:55 AM 35.6 °F 28.6 °F 32.0 °F 87% 29.84 in 10.0 mi West 9.2 mph - N/A   Overcast
2:15 AM 35.6 °F 29.2 °F 30.2 °F 81% 29.85 in 10.0 mi WNW 8.1 mph - N/A   Overcast
2:35 AM 33.8 °F 27.7 °F 32.0 °F 93% 29.85 in 10.0 mi West 6.9 mph - N/A   Overcast
2:55 AM 33.8 °F 27.7 °F 32.0 °F 93% 29.84 in 10.0 mi West 6.9 mph - N/A   Overcast
3:15 AM 33.8 °F 30.8 °F 30.2 °F 87% 29.84 in 10.0 mi West 3.5 mph - N/A   Overcast
3:35 AM 33.8 °F 28.6 °F 30.2 °F 87% 29.85 in 10.0 mi West 5.8 mph - N/A   Overcast
3:55 AM 32.0 °F 28.7 °F 30.2 °F 93% 29.86 in 10.0 mi NW 3.5 mph - N/A   Scattered Clouds
4:15 AM 32.0 °F - 28.4 °F 87% 29.86 in 10.0 mi Calm Calm - N/A   Clear
4:35 AM 32.0 °F 27.5 °F 28.4 °F 87% 29.87 in 10.0 mi NNW 4.6 mph - N/A   Scattered Clouds
4:55 AM 32.0 °F - 30.2 °F 93% 29.88 in 10.0 mi Calm Calm - N/A   Overcast
5:15 AM 33.8 °F 28.6 °F 30.2 °F 87% 29.89 in 10.0 mi WNW 5.8 mph - N/A   Overcast
5:35 AM 33.8 °F 27.0 °F 30.2 °F 87% 29.89 in 10.0 mi West 8.1 mph - N/A   Overcast
5:55 AM 33.8 °F 27.7 °F 30.2 °F 87% 29.89 in 10.0 mi West 6.9 mph - N/A   Overcast
6:15 AM 33.8 °F 27.7 °F 30.2 °F 87% 29.88 in 10.0 mi West 6.9 mph - N/A   Overcast
6:35 AM 33.8 °F 28.6 °F 30.2 °F 87% 29.88 in 10.0 mi West 5.8 mph - N/A   Mostly Cloudy
6:55 AM 32.0 °F 26.4 °F 30.2 °F 93% 29.89 in 10.0 mi West 5.8 mph - N/A   Scattered Clouds
7:15 AM 32.0 °F 28.7 °F 30.2 °F 93% 29.89 in 10.0 mi WNW 3.5 mph - N/A   Clear
7:35 AM 32.0 °F - 30.2 °F 93% 29.91 in 10.0 mi Calm Calm - N/A   Scattered Clouds
7:55 AM 33.8 °F - 30.2 °F 87% 29.91 in 10.0 mi Calm Calm - N/A   Clear
8:15 AM 37.4 °F - 30.2 °F 75% 29.92 in 10.0 mi Calm Calm - N/A   Clear
8:35 AM 39.2 °F 35.9 °F 32.0 °F 75% 29.92 in 10.0 mi West 4.6 mph - N/A   Clear
8:55 AM 41.0 °F 38.0 °F 32.0 °F 70% 29.94 in 10.0 mi WNW 4.6 mph - N/A   Clear
9:15 AM 42.8 °F 40.1 °F 30.2 °F 61% 29.95 in 10.0 mi West 4.6 mph - N/A   Clear
9:35 AM 44.6 °F 40.7 °F 32.0 °F 61% 29.95 in 10.0 mi WSW 6.9 mph - N/A   Clear
9:55 AM 46.4 °F - 28.4 °F 50% 29.95 in 10.0 mi Calm Calm - N/A   Clear
10:15 AM 46.4 °F 44.3 °F 28.4 °F 50% 29.96 in 10.0 mi WNW 4.6 mph - N/A   Scattered Clouds
10:35 AM 46.4 °F 41.5 °F 28.4 °F 50% 29.96 in 10.0 mi WNW 10.4 mph - N/A   Scattered Clouds
10:55 AM 50.0 °F - 28.4 °F 43% 29.97 in 10.0 mi WNW 8.1 mph - N/A   Mostly Cloudy
11:15 AM 48.2 °F - 28.4 °F 46% 29.96 in 10.0 mi North 5.8 mph - N/A   Overcast
11:35 AM 50.0 °F - 28.4 °F 43% 29.97 in 10.0 mi West 9.2 mph - N/A   Overcast
11:55 AM 50.0 °F - 28.4 °F 43% 29.97 in 10.0 mi WSW 9.2 mph - N/A   Overcast
12:15 PM 50.0 °F - 26.6 °F 40% 29.97 in 10.0 mi WNW 5.8 mph - N/A   Overcast
12:35 PM 50.0 °F - 28.4 °F 43% 29.97 in 10.0 mi North 4.6 mph - N/A   Mostly Cloudy
12:55 PM 51.8 °F - 24.8 °F 35% 29.97 in 10.0 mi Calm Calm - N/A   Mostly Cloudy
1:15 PM 53.6 °F - 24.8 °F 33% 29.97 in 10.0 mi NNE 8.1 mph - N/A   Mostly Cloudy
1:35 PM 53.6 °F - 23.0 °F 30% 29.96 in 10.0 mi NNW 3.5 mph - N/A   Scattered Clouds
1:55 PM 53.6 °F - 24.8 °F 33% 29.96 in 10.0 mi NNW 8.1 mph - N/A   Scattered Clouds
2:15 PM 53.6 °F - 23.0 °F 30% 29.95 in 10.0 mi Calm Calm - N/A   Clear
2:35 PM 55.4 °F - 23.0 °F 29% 29.96 in 10.0 mi SSW 10.4 mph - N/A   Scattered Clouds
2:55 PM 55.4 °F - 21.2 °F 26% 29.97 in 10.0 mi North 5.8 mph - N/A   Scattered Clouds
3:15 PM 53.6 °F - 24.8 °F 33% 29.97 in 10.0 mi North 6.9 mph - N/A   Scattered Clouds
3:35 PM 57.2 °F - 23.0 °F 27% 29.98 in 10.0 mi NNW 5.8 mph 16.1 mph N/A   Mostly Cloudy
3:55 PM 55.4 °F - 24.8 °F 31% 29.98 in 10.0 mi NNW 5.8 mph - N/A   Overcast
4:15 PM 53.6 °F - 24.8 °F 33% 29.99 in 10.0 mi NNW 5.8 mph - N/A   Overcast
4:35 PM 53.6 °F - 24.8 °F 33% 29.99 in 10.0 mi North 10.4 mph - N/A   Mostly Cloudy
4:55 PM 55.4 °F - 23.0 °F 29% 29.99 in 10.0 mi NW 9.2 mph - N/A   Mostly Cloudy
5:15 PM 51.8 °F - 26.6 °F 38% 29.99 in 10.0 mi West 10.4 mph - N/A   Mostly Cloudy
5:35 PM 53.6 °F - 26.6 °F 35% 29.99 in 10.0 mi West 9.2 mph - N/A   Mostly Cloudy
5:55 PM 53.6 °F - 26.6 °F 35% 30.00 in 10.0 mi WNW 12.7 mph 17.3 mph N/A   Overcast
6:15 PM 50.0 °F - 30.2 °F 47% 30.01 in 10.0 mi WNW 11.5 mph - N/A   Overcast
6:35 PM 48.2 °F - 30.2 °F 50% 30.02 in 10.0 mi WNW 8.1 mph - N/A   Overcast
6:55 PM 48.2 °F - 30.2 °F 50% 30.02 in 10.0 mi WNW 6.9 mph - N/A   Overcast
7:15 PM 44.6 °F 40.2 °F 30.2 °F 57% 30.02 in 10.0 mi WNW 8.1 mph - N/A   Mostly Cloudy
7:35 PM 44.6 °F 42.2 °F 30.2 °F 57% 30.03 in 10.0 mi West 4.6 mph - N/A   Scattered Clouds
7:55 PM 42.8 °F 39.3 °F 30.2 °F 61% 30.04 in 10.0 mi West 5.8 mph - N/A   Clear
8:15 PM 42.8 °F 38.0 °F 30.2 °F 61% 30.05 in 10.0 mi WNW 8.1 mph - N/A   Clear
8:35 PM 41.0 °F 35.8 °F 30.2 °F 65% 30.05 in 10.0 mi West 8.1 mph - N/A   Clear
8:55 PM 39.2 °F 35.0 °F 30.2 °F 70% 30.06 in 10.0 mi West 5.8 mph - N/A   Clear
9:15 PM 39.2 °F 35.0 °F 30.2 °F 70% 30.07 in 10.0 mi West 5.8 mph - N/A   Clear
9:35 PM 39.2 °F 34.2 °F 28.4 °F 65% 30.07 in 10.0 mi West 6.9 mph - N/A   Clear
9:55 PM 35.6 °F - 28.4 °F 75% 30.08 in 10.0 mi Calm Calm - N/A   Clear
10:15 PM 35.6 °F 30.7 °F 28.4 °F 75% 30.09 in 10.0 mi West 5.8 mph - N/A   Clear
10:35 PM 35.6 °F - 28.4 °F 75% 30.09 in 10.0 mi Calm Calm - N/A   Clear
10:55 PM 33.8 °F 28.6 °F 28.4 °F 81% 30.10 in 10.0 mi West 5.8 mph - N/A   Clear
11:15 PM 33.8 °F - 28.4 °F 81% 30.09 in 10.0 mi Calm Calm - N/A   Clear
11:55 PM 33.8 °F - 28.4 °F 81% 30.10 in 10.0 mi Calm Calm - N/A   Clear